sensor_id;sensor_type;location;lat;lon;timestamp;temperature;humidity
14737;DHT22;7459;53.590;10.062;2023-04-03T00:01:14;3.00;99.90
14737;DHT22;7459;53.590;10.062;2023-04-03T00:03:41;3.00;99.90
14737;DHT22;7459;53.590;10.062;2023-04-03T00:06:07;2.90;99.90
14737;DHT22;7459;53.590;10.062;2023-04-03T00:08:35;2.90;99.90
14737;DHT22;7459;53.590;10.062;2023-04-03T00:11:01;2.90;99.90
14737;DHT22;7459;53.590;10.062;2023-04-03T00:13:28;2.90;99.90
14737;DHT22;7459;53.590;10.062;2023-04-03T00:15:53;2.90;99.90
14737;DHT22;7459;53.590;10.062;2023-04-03T00:18:19;2.90;99.90
14737;DHT22;7459;53.590;10.062;2023-04-03T00:20:46;2.90;99.90
14737;DHT22;7459;53.590;10.062;2023-04-03T00:23:11;2.80;99.90
14737;DHT22;7459;53.590;10.062;2023-04-03T00:25:37;2.80;99.90
14737;DHT22;7459;53.590;10.062;2023-04-03T00:28:04;2.90;99.90
14737;DHT22;7459;53.590;10.062;2023-04-03T00:30:30;2.90;99.90
14737;DHT22;7459;53.590;10.062;2023-04-03T00:32:56;2.90;99.90
14737;DHT22;7459;53.590;10.062;2023-04-03T00:35:22;2.90;99.90
14737;DHT22;7459;53.590;10.062;2023-04-03T00:37:51;2.90;99.90
14737;DHT22;7459;53.590;10.062;2023-04-03T00:40:18;2.90;99.90
14737;DHT22;7459;53.590;10.062;2023-04-03T00:42:45;2.90;99.90
14737;DHT22;7459;53.590;10.062;2023-04-03T00:45:31;3.00;99.90
14737;DHT22;7459;53.590;10.062;2023-04-03T00:48:06;2.90;99.90
14737;DHT22;7459;53.590;10.062;2023-04-03T00:50:36;3.00;99.90
14737;DHT22;7459;53.590;10.062;2023-04-03T00:53:04;2.90;99.90
14737;DHT22;7459;53.590;10.062;2023-04-03T00:55:32;2.90;99.90
14737;DHT22;7459;53.590;10.062;2023-04-03T00:58:00;2.80;99.90
14737;DHT22;7459;53.590;10.062;2023-04-03T01:00:27;2.70;99.90
14737;DHT22;7459;53.590;10.062;2023-04-03T01:02:53;2.70;99.90
14737;DHT22;7459;53.590;10.062;2023-04-03T01:05:20;2.70;99.90
14737;DHT22;7459;53.590;10.062;2023-04-03T01:07:48;2.70;99.90
14737;DHT22;7459;53.590;10.062;2023-04-03T01:10:16;2.60;99.90
14737;DHT22;7459;53.590;10.062;2023-04-03T01:12:44;2.70;99.90
14737;DHT22;7459;53.590;10.062;2023-04-03T01:15:18;2.70;99.90
14737;DHT22;7459;53.590;10.062;2023-04-03T01:17:56;2.80;99.90
14737;DHT22;7459;53.590;10.062;2023-04-03T01:25:40;2.80;99.90
14737;DHT22;7459;53.590;10.062;2023-04-03T01:28:36;2.70;99.90
14737;DHT22;7459;53.590;10.062;2023-04-03T01:31:09;2.70;99.90
14737;DHT22;7459;53.590;10.062;2023-04-03T01:33:50;2.70;99.90
14737;DHT22;7459;53.590;10.062;2023-04-03T01:36:21;2.70;99.90
14737;DHT22;7459;53.590;10.062;2023-04-03T01:38:50;2.60;99.90
14737;DHT22;7459;53.590;10.062;2023-04-03T01:41:17;2.60;99.90
14737;DHT22;7459;53.590;10.062;2023-04-03T01:43:43;2.50;99.90
14737;DHT22;7459;53.590;10.062;2023-04-03T01:46:09;2.50;99.90
14737;DHT22;7459;53.590;10.062;2023-04-03T01:48:35;2.60;99.90
14737;DHT22;7459;53.590;10.062;2023-04-03T01:51:01;2.60;99.90
14737;DHT22;7459;53.590;10.062;2023-04-03T01:53:27;2.60;99.90
14737;DHT22;7459;53.590;10.062;2023-04-03T01:55:52;2.70;99.90
14737;DHT22;7459;53.590;10.062;2023-04-03T01:58:18;2.70;99.90
14737;DHT22;7459;53.590;10.062;2023-04-03T02:00:44;2.70;99.90
14737;DHT22;7459;53.590;10.062;2023-04-03T02:03:09;2.70;99.90
14737;DHT22;7459;53.590;10.062;2023-04-03T02:05:35;2.60;99.90
14737;DHT22;7459;53.590;10.062;2023-04-03T02:08:01;2.60;99.90
14737;DHT22;7459;53.590;10.062;2023-04-03T02:10:27;2.50;99.90
14737;DHT22;7459;53.590;10.062;2023-04-03T02:12:52;2.50;99.90
14737;DHT22;7459;53.590;10.062;2023-04-03T02:15:18;2.50;99.90
14737;DHT22;7459;53.590;10.062;2023-04-03T02:17:44;2.50;99.90
14737;DHT22;7459;53.590;10.062;2023-04-03T02:20:10;2.50;99.90
14737;DHT22;7459;53.590;10.062;2023-04-03T02:22:36;2.50;99.90
14737;DHT22;7459;53.590;10.062;2023-04-03T02:25:02;2.50;99.90
14737;DHT22;7459;53.590;10.062;2023-04-03T02:27:28;2.40;99.90
14737;DHT22;7459;53.590;10.062;2023-04-03T02:29:53;2.30;99.90
14737;DHT22;7459;53.590;10.062;2023-04-03T02:32:19;2.40;99.90
14737;DHT22;7459;53.590;10.062;2023-04-03T02:34:45;2.30;99.90
14737;DHT22;7459;53.590;10.062;2023-04-03T02:37:10;2.30;99.90
14737;DHT22;7459;53.590;10.062;2023-04-03T02:39:36;2.30;99.90
14737;DHT22;7459;53.590;10.062;2023-04-03T02:42:02;2.30;99.90
14737;DHT22;7459;53.590;10.062;2023-04-03T02:44:28;2.30;99.90
14737;DHT22;7459;53.590;10.062;2023-04-03T02:46:54;2.30;99.90
14737;DHT22;7459;53.590;10.062;2023-04-03T02:49:19;2.30;99.90
14737;DHT22;7459;53.590;10.062;2023-04-03T02:51:45;2.40;99.90
14737;DHT22;7459;53.590;10.062;2023-04-03T02:54:11;2.40;99.90
14737;DHT22;7459;53.590;10.062;2023-04-03T02:56:37;2.40;99.90
14737;DHT22;7459;53.590;10.062;2023-04-03T02:59:03;2.40;99.90
14737;DHT22;7459;53.590;10.062;2023-04-03T03:01:29;2.40;99.90
14737;DHT22;7459;53.590;10.062;2023-04-03T03:03:57;2.40;99.90
14737;DHT22;7459;53.590;10.062;2023-04-03T03:06:23;2.40;99.90
14737;DHT22;7459;53.590;10.062;2023-04-03T03:08:49;2.40;99.90
14737;DHT22;7459;53.590;10.062;2023-04-03T03:11:14;2.30;99.90
14737;DHT22;7459;53.590;10.062;2023-04-03T03:13:40;2.20;99.90
14737;DHT22;7459;53.590;10.062;2023-04-03T03:16:07;2.10;99.90
14737;DHT22;7459;53.590;10.062;2023-04-03T03:18:33;2.10;99.90
14737;DHT22;7459;53.590;10.062;2023-04-03T03:21:00;2.10;99.90
14737;DHT22;7459;53.590;10.062;2023-04-03T03:23:28;2.00;99.90
14737;DHT22;7459;53.590;10.062;2023-04-03T03:26:12;2.00;99.90
14737;DHT22;7459;53.590;10.062;2023-04-03T03:28:39;2.00;99.90
14737;DHT22;7459;53.590;10.062;2023-04-03T03:31:06;2.10;99.90
14737;DHT22;7459;53.590;10.062;2023-04-03T03:33:32;2.00;99.90
14737;DHT22;7459;53.590;10.062;2023-04-03T03:35:59;2.00;99.90
14737;DHT22;7459;53.590;10.062;2023-04-03T03:38:25;2.00;99.90
14737;DHT22;7459;53.590;10.062;2023-04-03T03:40:51;2.00;99.90
14737;DHT22;7459;53.590;10.062;2023-04-03T03:43:18;2.00;99.90
14737;DHT22;7459;53.590;10.062;2023-04-03T03:45:44;2.00;99.90
14737;DHT22;7459;53.590;10.062;2023-04-03T03:48:11;1.90;99.90
14737;DHT22;7459;53.590;10.062;2023-04-03T03:50:37;1.90;99.90
14737;DHT22;7459;53.590;10.062;2023-04-03T03:53:02;1.90;99.90
14737;DHT22;7459;53.590;10.062;2023-04-03T03:55:28;2.00;99.90
14737;DHT22;7459;53.590;10.062;2023-04-03T03:57:54;2.00;99.90
14737;DHT22;7459;53.590;10.062;2023-04-03T04:00:20;1.90;99.90
14737;DHT22;7459;53.590;10.062;2023-04-03T04:02:46;1.90;99.90
14737;DHT22;7459;53.590;10.062;2023-04-03T04:05:12;1.90;99.90
14737;DHT22;7459;53.590;10.062;2023-04-03T04:07:38;1.80;99.90
14737;DHT22;7459;53.590;10.062;2023-04-03T04:10:04;1.80;99.90
14737;DHT22;7459;53.590;10.062;2023-04-03T04:12:30;1.80;99.90
14737;DHT22;7459;53.590;10.062;2023-04-03T04:14:55;1.80;99.90
14737;DHT22;7459;53.590;10.062;2023-04-03T04:17:21;1.90;99.90
14737;DHT22;7459;53.590;10.062;2023-04-03T04:19:47;1.80;99.90
14737;DHT22;7459;53.590;10.062;2023-04-03T04:22:12;1.80;99.90
14737;DHT22;7459;53.590;10.062;2023-04-03T04:24:38;1.90;99.90
14737;DHT22;7459;53.590;10.062;2023-04-03T04:27:04;1.90;99.90
14737;DHT22;7459;53.590;10.062;2023-04-03T04:29:29;1.90;99.90
14737;DHT22;7459;53.590;10.062;2023-04-03T04:32:00;1.90;99.90
14737;DHT22;7459;53.590;10.062;2023-04-03T04:34:26;1.90;99.90
14737;DHT22;7459;53.590;10.062;2023-04-03T04:36:51;1.90;99.90
14737;DHT22;7459;53.590;10.062;2023-04-03T04:39:17;1.90;99.90
14737;DHT22;7459;53.590;10.062;2023-04-03T04:41:43;1.80;99.90
14737;DHT22;7459;53.590;10.062;2023-04-03T04:44:09;1.80;99.90
14737;DHT22;7459;53.590;10.062;2023-04-03T04:46:34;1.80;99.90
14737;DHT22;7459;53.590;10.062;2023-04-03T04:49:00;1.70;99.90
14737;DHT22;7459;53.590;10.062;2023-04-03T04:51:26;1.70;99.90
14737;DHT22;7459;53.590;10.062;2023-04-03T04:53:51;1.70;99.90
14737;DHT22;7459;53.590;10.062;2023-04-03T04:56:17;1.70;99.90
14737;DHT22;7459;53.590;10.062;2023-04-03T04:58:43;1.70;99.90
14737;DHT22;7459;53.590;10.062;2023-04-03T05:01:10;1.70;99.90
14737;DHT22;7459;53.590;10.062;2023-04-03T05:03:36;1.70;99.90
14737;DHT22;7459;53.590;10.062;2023-04-03T05:06:02;1.70;99.90
14737;DHT22;7459;53.590;10.062;2023-04-03T05:08:28;1.70;99.90
14737;DHT22;7459;53.590;10.062;2023-04-03T05:10:54;1.60;99.90
14737;DHT22;7459;53.590;10.062;2023-04-03T05:13:20;1.50;99.90
14737;DHT22;7459;53.590;10.062;2023-04-03T05:15:46;1.50;99.90
14737;DHT22;7459;53.590;10.062;2023-04-03T05:18:12;1.60;99.90
14737;DHT22;7459;53.590;10.062;2023-04-03T05:20:38;1.60;99.90
14737;DHT22;7459;53.590;10.062;2023-04-03T05:23:04;1.70;99.90
14737;DHT22;7459;53.590;10.062;2023-04-03T05:25:31;1.80;99.90
14737;DHT22;7459;53.590;10.062;2023-04-03T05:27:56;1.80;99.90
14737;DHT22;7459;53.590;10.062;2023-04-03T05:30:22;1.90;99.90
14737;DHT22;7459;53.590;10.062;2023-04-03T05:32:48;1.90;99.90
14737;DHT22;7459;53.590;10.062;2023-04-03T05:35:14;1.90;99.90
14737;DHT22;7459;53.590;10.062;2023-04-03T05:37:39;1.90;99.90
14737;DHT22;7459;53.590;10.062;2023-04-03T05:40:06;1.90;99.90
14737;DHT22;7459;53.590;10.062;2023-04-03T05:42:32;2.00;99.90
14737;DHT22;7459;53.590;10.062;2023-04-03T05:44:58;1.90;99.90
14737;DHT22;7459;53.590;10.062;2023-04-03T05:47:24;2.00;99.90
14737;DHT22;7459;53.590;10.062;2023-04-03T05:49:50;2.00;99.90
14737;DHT22;7459;53.590;10.062;2023-04-03T05:52:26;2.00;99.90
14737;DHT22;7459;53.590;10.062;2023-04-03T05:54:54;2.00;99.90
14737;DHT22;7459;53.590;10.062;2023-04-03T05:57:20;2.10;99.90
14737;DHT22;7459;53.590;10.062;2023-04-03T05:59:46;2.10;99.90
14737;DHT22;7459;53.590;10.062;2023-04-03T06:02:15;2.10;99.90
14737;DHT22;7459;53.590;10.062;2023-04-03T06:04:42;2.10;99.90
14737;DHT22;7459;53.590;10.062;2023-04-03T06:07:15;2.20;99.90
14737;DHT22;7459;53.590;10.062;2023-04-03T06:09:47;2.30;99.90
14737;DHT22;7459;53.590;10.062;2023-04-03T06:12:13;2.30;99.90
14737;DHT22;7459;53.590;10.062;2023-04-03T06:14:38;2.40;99.90
14737;DHT22;7459;53.590;10.062;2023-04-03T06:17:04;2.30;99.90
14737;DHT22;7459;53.590;10.062;2023-04-03T06:19:31;2.40;99.90
14737;DHT22;7459;53.590;10.062;2023-04-03T06:21:57;2.40;99.90
14737;DHT22;7459;53.590;10.062;2023-04-03T06:24:23;2.50;99.90
14737;DHT22;7459;53.590;10.062;2023-04-03T06:26:50;2.50;99.90
14737;DHT22;7459;53.590;10.062;2023-04-03T06:29:17;2.60;99.90
14737;DHT22;7459;53.590;10.062;2023-04-03T06:31:43;2.70;99.90
14737;DHT22;7459;53.590;10.062;2023-04-03T06:34:09;2.70;99.90
14737;DHT22;7459;53.590;10.062;2023-04-03T06:36:37;2.80;99.90
14737;DHT22;7459;53.590;10.062;2023-04-03T06:39:03;2.90;99.90
14737;DHT22;7459;53.590;10.062;2023-04-03T06:41:28;2.90;99.90
14737;DHT22;7459;53.590;10.062;2023-04-03T06:43:54;3.00;99.90
14737;DHT22;7459;53.590;10.062;2023-04-03T06:46:23;3.00;99.90
14737;DHT22;7459;53.590;10.062;2023-04-03T06:48:49;3.10;99.90
14737;DHT22;7459;53.590;10.062;2023-04-03T06:51:27;3.10;99.90
14737;DHT22;7459;53.590;10.062;2023-04-03T06:53:55;3.10;99.90
14737;DHT22;7459;53.590;10.062;2023-04-03T06:56:22;3.20;99.90
14737;DHT22;7459;53.590;10.062;2023-04-03T06:58:49;3.20;99.90
14737;DHT22;7459;53.590;10.062;2023-04-03T07:01:17;3.30;99.90
14737;DHT22;7459;53.590;10.062;2023-04-03T07:03:44;3.40;99.90
14737;DHT22;7459;53.590;10.062;2023-04-03T07:06:12;3.40;99.90
14737;DHT22;7459;53.590;10.062;2023-04-03T07:08:39;3.50;99.90
14737;DHT22;7459;53.590;10.062;2023-04-03T07:11:05;3.60;99.90
14737;DHT22;7459;53.590;10.062;2023-04-03T07:13:31;3.70;99.90
14737;DHT22;7459;53.590;10.062;2023-04-03T07:15:58;3.80;99.90
14737;DHT22;7459;53.590;10.062;2023-04-03T07:18:24;3.80;99.90
14737;DHT22;7459;53.590;10.062;2023-04-03T07:20:50;3.90;99.90
14737;DHT22;7459;53.590;10.062;2023-04-03T07:23:17;3.90;99.90
14737;DHT22;7459;53.590;10.062;2023-04-03T07:25:44;4.00;99.90
14737;DHT22;7459;53.590;10.062;2023-04-03T07:28:15;4.10;99.90
14737;DHT22;7459;53.590;10.062;2023-04-03T07:30:45;4.10;99.90
14737;DHT22;7459;53.590;10.062;2023-04-03T07:33:13;4.20;99.90
14737;DHT22;7459;53.590;10.062;2023-04-03T07:35:40;4.20;99.90
14737;DHT22;7459;53.590;10.062;2023-04-03T07:38:06;4.20;99.90
14737;DHT22;7459;53.590;10.062;2023-04-03T07:40:32;4.30;99.90
14737;DHT22;7459;53.590;10.062;2023-04-03T07:42:58;4.30;99.90
14737;DHT22;7459;53.590;10.062;2023-04-03T07:45:25;4.30;99.90
14737;DHT22;7459;53.590;10.062;2023-04-03T07:47:51;4.40;99.90
14737;DHT22;7459;53.590;10.062;2023-04-03T07:50:17;4.50;99.90
14737;DHT22;7459;53.590;10.062;2023-04-03T07:52:43;4.50;99.90
14737;DHT22;7459;53.590;10.062;2023-04-03T07:55:09;4.60;99.90
14737;DHT22;7459;53.590;10.062;2023-04-03T07:57:35;4.60;99.90
14737;DHT22;7459;53.590;10.062;2023-04-03T08:00:02;4.70;99.90
14737;DHT22;7459;53.590;10.062;2023-04-03T08:02:29;4.70;99.90
14737;DHT22;7459;53.590;10.062;2023-04-03T08:04:56;4.80;99.90
14737;DHT22;7459;53.590;10.062;2023-04-03T08:07:22;4.80;99.90
14737;DHT22;7459;53.590;10.062;2023-04-03T08:09:47;4.80;99.90
14737;DHT22;7459;53.590;10.062;2023-04-03T08:12:13;4.80;99.90
14737;DHT22;7459;53.590;10.062;2023-04-03T08:14:40;4.90;99.90
14737;DHT22;7459;53.590;10.062;2023-04-03T08:17:06;4.80;99.90
14737;DHT22;7459;53.590;10.062;2023-04-03T08:19:34;4.90;99.90
14737;DHT22;7459;53.590;10.062;2023-04-03T08:22:00;4.90;99.90
14737;DHT22;7459;53.590;10.062;2023-04-03T08:24:28;5.00;99.90
14737;DHT22;7459;53.590;10.062;2023-04-03T08:26:54;5.00;99.90
14737;DHT22;7459;53.590;10.062;2023-04-03T08:29:20;5.10;99.90
14737;DHT22;7459;53.590;10.062;2023-04-03T08:31:46;5.10;99.90
14737;DHT22;7459;53.590;10.062;2023-04-03T08:34:12;5.10;99.90
14737;DHT22;7459;53.590;10.062;2023-04-03T08:36:39;5.20;99.90
14737;DHT22;7459;53.590;10.062;2023-04-03T08:39:05;5.20;99.90
14737;DHT22;7459;53.590;10.062;2023-04-03T08:41:36;5.30;99.90
14737;DHT22;7459;53.590;10.062;2023-04-03T08:44:46;5.30;99.90
14737;DHT22;7459;53.590;10.062;2023-04-03T08:47:45;5.40;99.90
14737;DHT22;7459;53.590;10.062;2023-04-03T08:50:17;5.40;99.90
14737;DHT22;7459;53.590;10.062;2023-04-03T08:52:48;5.40;99.90
14737;DHT22;7459;53.590;10.062;2023-04-03T08:55:29;5.40;99.90
14737;DHT22;7459;53.590;10.062;2023-04-03T08:58:07;5.50;99.90
14737;DHT22;7459;53.590;10.062;2023-04-03T09:01:05;5.50;99.90
14737;DHT22;7459;53.590;10.062;2023-04-03T09:03:41;5.50;99.90
14737;DHT22;7459;53.590;10.062;2023-04-03T09:06:12;5.50;99.90
14737;DHT22;7459;53.590;10.062;2023-04-03T09:09:29;5.50;99.90
14737;DHT22;7459;53.590;10.062;2023-04-03T09:11:46;5.60;99.90
14737;DHT22;7459;53.590;10.062;2023-04-03T09:14:57;5.70;99.90
14737;DHT22;7459;53.590;10.062;2023-04-03T09:20:19;5.80;99.90
14737;DHT22;7459;53.590;10.062;2023-04-03T09:22:51;5.80;99.90
14737;DHT22;7459;53.590;10.062;2023-04-03T09:25:33;5.90;99.90
14737;DHT22;7459;53.590;10.062;2023-04-03T09:28:01;5.90;99.90
14737;DHT22;7459;53.590;10.062;2023-04-03T09:30:28;5.90;99.90
14737;DHT22;7459;53.590;10.062;2023-04-03T09:32:56;6.00;99.90
14737;DHT22;7459;53.590;10.062;2023-04-03T09:35:25;6.00;99.90
14737;DHT22;7459;53.590;10.062;2023-04-03T09:40:39;6.10;99.90
14737;DHT22;7459;53.590;10.062;2023-04-03T09:43:22;6.10;99.90
14737;DHT22;7459;53.590;10.062;2023-04-03T09:45:50;6.10;99.90
14737;DHT22;7459;53.590;10.062;2023-04-03T09:48:27;6.10;99.90
14737;DHT22;7459;53.590;10.062;2023-04-03T09:50:58;6.10;99.90
14737;DHT22;7459;53.590;10.062;2023-04-03T09:53:43;6.10;99.90
14737;DHT22;7459;53.590;10.062;2023-04-03T09:58:44;6.20;99.90
14737;DHT22;7459;53.590;10.062;2023-04-03T10:01:36;6.20;99.90
14737;DHT22;7459;53.590;10.062;2023-04-03T10:04:13;6.30;99.90
14737;DHT22;7459;53.590;10.062;2023-04-03T10:06:47;6.30;99.90
14737;DHT22;7459;53.590;10.062;2023-04-03T10:09:32;6.50;99.30
14737;DHT22;7459;53.590;10.062;2023-04-03T10:12:11;6.50;99.50
14737;DHT22;7459;53.590;10.062;2023-04-03T10:14:54;6.50;99.90
14737;DHT22;7459;53.590;10.062;2023-04-03T10:17:34;6.50;99.90
14737;DHT22;7459;53.590;10.062;2023-04-03T10:20:27;6.60;99.90
14737;DHT22;7459;53.590;10.062;2023-04-03T10:25:47;6.60;99.90
14737;DHT22;7459;53.590;10.062;2023-04-03T10:28:31;6.70;99.10
14737;DHT22;7459;53.590;10.062;2023-04-03T10:34:06;6.70;99.80
14737;DHT22;7459;53.590;10.062;2023-04-03T10:40:12;6.80;98.30
14737;DHT22;7459;53.590;10.062;2023-04-03T10:43:06;6.70;98.20
14737;DHT22;7459;53.590;10.062;2023-04-03T10:48:55;7.00;99.90
14737;DHT22;7459;53.590;10.062;2023-04-03T10:54:49;7.00;99.90
14737;DHT22;7459;53.590;10.062;2023-04-03T10:57:39;7.20;99.90
14737;DHT22;7459;53.590;10.062;2023-04-03T11:00:17;7.30;99.90
14737;DHT22;7459;53.590;10.062;2023-04-03T11:02:52;7.40;99.90
14737;DHT22;7459;53.590;10.062;2023-04-03T11:05:41;7.50;99.90
14737;DHT22;7459;53.590;10.062;2023-04-03T11:08:34;7.60;99.90
14737;DHT22;7459;53.590;10.062;2023-04-03T11:11:12;7.60;99.80
14737;DHT22;7459;53.590;10.062;2023-04-03T11:13:51;7.60;99.90
14737;DHT22;7459;53.590;10.062;2023-04-03T11:16:24;7.50;99.80
14737;DHT22;7459;53.590;10.062;2023-04-03T11:19:03;7.40;99.90
14737;DHT22;7459;53.590;10.062;2023-04-03T11:22:03;7.40;99.90
14737;DHT22;7459;53.590;10.062;2023-04-03T11:24:54;7.20;99.70
14737;DHT22;7459;53.590;10.062;2023-04-03T11:27:33;7.20;99.90
14737;DHT22;7459;53.590;10.062;2023-04-03T11:30:07;7.20;99.90
14737;DHT22;7459;53.590;10.062;2023-04-03T11:33:15;7.20;99.90
14737;DHT22;7459;53.590;10.062;2023-04-03T11:35:58;7.40;99.90
14737;DHT22;7459;53.590;10.062;2023-04-03T11:38:31;7.40;99.80
14737;DHT22;7459;53.590;10.062;2023-04-03T11:41:02;7.40;99.90
14737;DHT22;7459;53.590;10.062;2023-04-03T11:43:30;7.40;99.90
14737;DHT22;7459;53.590;10.062;2023-04-03T11:46:00;7.30;99.90
14737;DHT22;7459;53.590;10.062;2023-04-03T11:53:53;7.60;99.90
14737;DHT22;7459;53.590;10.062;2023-04-03T12:01:49;8.00;98.90
14737;DHT22;7459;53.590;10.062;2023-04-03T12:04:25;8.10;98.70
14737;DHT22;7459;53.590;10.062;2023-04-03T12:07:00;8.20;98.50
14737;DHT22;7459;53.590;10.062;2023-04-03T12:09:58;8.30;98.30
14737;DHT22;7459;53.590;10.062;2023-04-03T12:12:39;8.40;98.60
14737;DHT22;7459;53.590;10.062;2023-04-03T12:15:41;8.50;98.40
14737;DHT22;7459;53.590;10.062;2023-04-03T12:18:43;8.60;98.80
14737;DHT22;7459;53.590;10.062;2023-04-03T12:27:02;8.80;98.80
14737;DHT22;7459;53.590;10.062;2023-04-03T12:29:45;9.00;99.80
14737;DHT22;7459;53.590;10.062;2023-04-03T12:32:46;9.20;99.90
14737;DHT22;7459;53.590;10.062;2023-04-03T12:38:41;9.50;99.90
14737;DHT22;7459;53.590;10.062;2023-04-03T12:44:30;9.30;98.20
14737;DHT22;7459;53.590;10.062;2023-04-03T12:47:16;9.10;97.20
14737;DHT22;7459;53.590;10.062;2023-04-03T12:49:49;8.90;96.90
14737;DHT22;7459;53.590;10.062;2023-04-03T12:52:23;8.80;98.10
14737;DHT22;7459;53.590;10.062;2023-04-03T12:54:56;8.80;98.20
14737;DHT22;7459;53.590;10.062;2023-04-03T12:57:25;8.90;98.10
14737;DHT22;7459;53.590;10.062;2023-04-03T12:59:52;8.90;97.10
14737;DHT22;7459;53.590;10.062;2023-04-03T13:02:25;9.00;96.70
14737;DHT22;7459;53.590;10.062;2023-04-03T13:04:54;9.00;97.10
14737;DHT22;7459;53.590;10.062;2023-04-03T13:07:32;9.00;97.40
14737;DHT22;7459;53.590;10.062;2023-04-03T13:10:20;9.10;96.90
14737;DHT22;7459;53.590;10.062;2023-04-03T13:12:56;9.10;95.70
14737;DHT22;7459;53.590;10.062;2023-04-03T13:15:30;9.10;95.20
14737;DHT22;7459;53.590;10.062;2023-04-03T13:18:25;9.00;95.40
14737;DHT22;7459;53.590;10.062;2023-04-03T13:20:51;9.00;95.70
14737;DHT22;7459;53.590;10.062;2023-04-03T13:23:20;8.90;95.80
14737;DHT22;7459;53.590;10.062;2023-04-03T13:25:47;9.00;96.70
14737;DHT22;7459;53.590;10.062;2023-04-03T13:28:19;9.00;95.20
14737;DHT22;7459;53.590;10.062;2023-04-03T13:31:20;9.00;95.20
14737;DHT22;7459;53.590;10.062;2023-04-03T13:34:12;9.10;95.20
14737;DHT22;7459;53.590;10.062;2023-04-03T13:36:57;9.10;94.90
14737;DHT22;7459;53.590;10.062;2023-04-03T13:39:31;9.10;95.40
14737;DHT22;7459;53.590;10.062;2023-04-03T13:42:01;9.20;96.20
14737;DHT22;7459;53.590;10.062;2023-04-03T13:44:40;9.30;95.80
14737;DHT22;7459;53.590;10.062;2023-04-03T13:50:02;9.40;94.40
14737;DHT22;7459;53.590;10.062;2023-04-03T13:52:47;9.50;93.60
14737;DHT22;7459;53.590;10.062;2023-04-03T13:58:19;9.60;94.70
14737;DHT22;7459;53.590;10.062;2023-04-03T14:00:54;9.60;95.00
14737;DHT22;7459;53.590;10.062;2023-04-03T14:05:56;9.80;94.90
14737;DHT22;7459;53.590;10.062;2023-04-03T14:08:21;9.90;95.20
14737;DHT22;7459;53.590;10.062;2023-04-03T14:10:48;9.90;94.70
14737;DHT22;7459;53.590;10.062;2023-04-03T14:13:16;10.00;94.20
14737;DHT22;7459;53.590;10.062;2023-04-03T14:15:44;10.00;94.40
14737;DHT22;7459;53.590;10.062;2023-04-03T14:18:16;10.10;94.90
14737;DHT22;7459;53.590;10.062;2023-04-03T14:20:44;10.10;94.40
14737;DHT22;7459;53.590;10.062;2023-04-03T14:23:10;10.10;93.70
14737;DHT22;7459;53.590;10.062;2023-04-03T14:25:36;10.10;93.90
14737;DHT22;7459;53.590;10.062;2023-04-03T14:28:16;10.10;93.20
14737;DHT22;7459;53.590;10.062;2023-04-03T14:30:44;10.10;94.00
14737;DHT22;7459;53.590;10.062;2023-04-03T14:33:14;10.10;94.50
14737;DHT22;7459;53.590;10.062;2023-04-03T14:35:42;10.20;94.80
14737;DHT22;7459;53.590;10.062;2023-04-03T14:38:25;10.20;94.20
14737;DHT22;7459;53.590;10.062;2023-04-03T14:40:55;10.20;94.30
14737;DHT22;7459;53.590;10.062;2023-04-03T14:43:21;10.20;94.00
14737;DHT22;7459;53.590;10.062;2023-04-03T14:45:48;10.20;93.90
14737;DHT22;7459;53.590;10.062;2023-04-03T14:48:23;10.10;93.20
14737;DHT22;7459;53.590;10.062;2023-04-03T14:50:51;10.10;93.40
14737;DHT22;7459;53.590;10.062;2023-04-03T14:53:19;10.10;93.50
14737;DHT22;7459;53.590;10.062;2023-04-03T14:55:48;10.10;93.20
14737;DHT22;7459;53.590;10.062;2023-04-03T14:58:17;10.10;93.40
14737;DHT22;7459;53.590;10.062;2023-04-03T15:00:44;10.10;94.00
14737;DHT22;7459;53.590;10.062;2023-04-03T15:03:16;10.10;93.60
14737;DHT22;7459;53.590;10.062;2023-04-03T15:05:47;10.00;92.70
14737;DHT22;7459;53.590;10.062;2023-04-03T15:08:22;10.00;92.90
14737;DHT22;7459;53.590;10.062;2023-04-03T15:10:50;9.90;93.20
14737;DHT22;7459;53.590;10.062;2023-04-03T15:13:21;9.80;93.30
14737;DHT22;7459;53.590;10.062;2023-04-03T15:15:47;9.80;92.90
14737;DHT22;7459;53.590;10.062;2023-04-03T15:18:24;9.80;93.40
14737;DHT22;7459;53.590;10.062;2023-04-03T15:20:52;9.70;93.70
14737;DHT22;7459;53.590;10.062;2023-04-03T15:23:18;9.80;94.20
14737;DHT22;7459;53.590;10.062;2023-04-03T15:25:46;9.80;94.70
14737;DHT22;7459;53.590;10.062;2023-04-03T15:28:22;9.90;94.90
14737;DHT22;7459;53.590;10.062;2023-04-03T15:30:50;10.10;94.60
14737;DHT22;7459;53.590;10.062;2023-04-03T15:33:16;10.20;95.20
14737;DHT22;7459;53.590;10.062;2023-04-03T15:35:42;10.30;95.30
14737;DHT22;7459;53.590;10.062;2023-04-03T15:38:08;10.30;94.10
14737;DHT22;7459;53.590;10.062;2023-04-03T15:40:35;10.30;93.30
14737;DHT22;7459;53.590;10.062;2023-04-03T15:43:00;10.20;93.20
14737;DHT22;7459;53.590;10.062;2023-04-03T15:45:29;10.20;93.40
14737;DHT22;7459;53.590;10.062;2023-04-03T15:47:56;10.10;93.70
14737;DHT22;7459;53.590;10.062;2023-04-03T15:50:22;10.00;94.10
14737;DHT22;7459;53.590;10.062;2023-04-03T15:52:49;10.10;94.40
14737;DHT22;7459;53.590;10.062;2023-04-03T15:55:26;10.10;93.90
14737;DHT22;7459;53.590;10.062;2023-04-03T15:57:54;10.10;93.60
14737;DHT22;7459;53.590;10.062;2023-04-03T16:00:21;10.10;94.00
14737;DHT22;7459;53.590;10.062;2023-04-03T16:02:52;10.20;94.90
14737;DHT22;7459;53.590;10.062;2023-04-03T16:05:20;10.30;93.70
14737;DHT22;7459;53.590;10.062;2023-04-03T16:07:46;10.40;93.40
14737;DHT22;7459;53.590;10.062;2023-04-03T16:10:13;10.40;93.70
14737;DHT22;7459;53.590;10.062;2023-04-03T16:12:40;10.40;93.60
14737;DHT22;7459;53.590;10.062;2023-04-03T16:15:07;10.40;94.70
14737;DHT22;7459;53.590;10.062;2023-04-03T16:17:34;10.30;94.10
14737;DHT22;7459;53.590;10.062;2023-04-03T16:20:00;10.20;93.70
14737;DHT22;7459;53.590;10.062;2023-04-03T16:22:27;10.10;94.10
14737;DHT22;7459;53.590;10.062;2023-04-03T16:24:54;10.00;93.40
14737;DHT22;7459;53.590;10.062;2023-04-03T16:27:20;9.90;94.00
14737;DHT22;7459;53.590;10.062;2023-04-03T16:29:46;9.80;94.10
14737;DHT22;7459;53.590;10.062;2023-04-03T16:32:13;9.80;94.30
14737;DHT22;7459;53.590;10.062;2023-04-03T16:34:39;9.70;93.90
14737;DHT22;7459;53.590;10.062;2023-04-03T16:37:05;9.70;94.10
14737;DHT22;7459;53.590;10.062;2023-04-03T16:39:34;9.50;94.30
14737;DHT22;7459;53.590;10.062;2023-04-03T16:42:00;9.40;94.30
14737;DHT22;7459;53.590;10.062;2023-04-03T16:44:26;9.30;94.60
14737;DHT22;7459;53.590;10.062;2023-04-03T16:46:52;9.30;95.00
14737;DHT22;7459;53.590;10.062;2023-04-03T16:49:18;9.30;95.50
14737;DHT22;7459;53.590;10.062;2023-04-03T16:51:43;9.20;95.20
14737;DHT22;7459;53.590;10.062;2023-04-03T16:54:10;9.10;95.50
14737;DHT22;7459;53.590;10.062;2023-04-03T16:56:38;9.00;95.40
14737;DHT22;7459;53.590;10.062;2023-04-03T16:59:04;8.90;95.60
14737;DHT22;7459;53.590;10.062;2023-04-03T17:01:30;8.80;96.20
14737;DHT22;7459;53.590;10.062;2023-04-03T17:03:56;8.70;96.60
14737;DHT22;7459;53.590;10.062;2023-04-03T17:06:22;8.70;96.40